sensor_id;sensor_type;location;lat;lon;timestamp;temperature;humidity
27858;DHT22;16852;51.446;6.528;2022-07-17T00:00:30;19.20;86.40
27858;DHT22;16852;51.446;6.528;2022-07-17T00:02:31;19.20;86.40
27858;DHT22;16852;51.446;6.528;2022-07-17T00:04:32;19.20;85.70
27858;DHT22;16852;51.446;6.528;2022-07-17T00:06:32;19.20;85.30
27858;DHT22;16852;51.446;6.528;2022-07-17T00:08:33;19.20;85.10
27858;DHT22;16852;51.446;6.528;2022-07-17T00:10:35;19.20;85.40
27858;DHT22;16852;51.446;6.528;2022-07-17T00:12:36;19.20;86.10
27858;DHT22;16852;51.446;6.528;2022-07-17T00:14:37;19.20;85.70
27858;DHT22;16852;51.446;6.528;2022-07-17T00:16:38;19.20;85.70
27858;DHT22;16852;51.446;6.528;2022-07-17T00:18:38;19.20;85.80
27858;DHT22;16852;51.446;6.528;2022-07-17T00:20:39;19.20;85.40
27858;DHT22;16852;51.446;6.528;2022-07-17T00:22:40;19.10;84.60
27858;DHT22;16852;51.446;6.528;2022-07-17T00:24:43;19.10;85.40
27858;DHT22;16852;51.446;6.528;2022-07-17T00:26:43;19.10;85.70
27858;DHT22;16852;51.446;6.528;2022-07-17T00:28:44;19.00;86.70
27858;DHT22;16852;51.446;6.528;2022-07-17T00:30:45;19.00;89.30
27858;DHT22;16852;51.446;6.528;2022-07-17T00:32:45;19.00;86.90
27858;DHT22;16852;51.446;6.528;2022-07-17T00:34:46;18.90;87.80
27858;DHT22;16852;51.446;6.528;2022-07-17T00:36:46;18.80;88.60
27858;DHT22;16852;51.446;6.528;2022-07-17T00:38:47;18.80;88.50
27858;DHT22;16852;51.446;6.528;2022-07-17T00:40:47;18.80;90.80
27858;DHT22;16852;51.446;6.528;2022-07-17T00:42:48;18.70;89.30
27858;DHT22;16852;51.446;6.528;2022-07-17T00:44:49;18.70;89.40
27858;DHT22;16852;51.446;6.528;2022-07-17T00:46:50;18.60;88.90
27858;DHT22;16852;51.446;6.528;2022-07-17T00:48:50;18.60;88.20
27858;DHT22;16852;51.446;6.528;2022-07-17T00:50:51;18.50;88.60
27858;DHT22;16852;51.446;6.528;2022-07-17T00:52:52;18.50;88.80
27858;DHT22;16852;51.446;6.528;2022-07-17T00:54:54;18.50;88.00
27858;DHT22;16852;51.446;6.528;2022-07-17T00:56:56;18.50;88.90
27858;DHT22;16852;51.446;6.528;2022-07-17T00:59:00;18.40;88.60
27858;DHT22;16852;51.446;6.528;2022-07-17T01:01:03;18.30;88.80
27858;DHT22;16852;51.446;6.528;2022-07-17T01:03:08;18.30;89.20
27858;DHT22;16852;51.446;6.528;2022-07-17T01:05:09;18.30;89.50
27858;DHT22;16852;51.446;6.528;2022-07-17T01:07:10;18.20;90.40
27858;DHT22;16852;51.446;6.528;2022-07-17T01:09:11;18.20;90.10
27858;DHT22;16852;51.446;6.528;2022-07-17T01:11:11;18.10;90.00
27858;DHT22;16852;51.446;6.528;2022-07-17T01:13:12;18.10;88.90
27858;DHT22;16852;51.446;6.528;2022-07-17T01:15:14;18.10;90.00
27858;DHT22;16852;51.446;6.528;2022-07-17T01:17:15;18.10;89.30
27858;DHT22;16852;51.446;6.528;2022-07-17T01:19:17;18.10;88.30
27858;DHT22;16852;51.446;6.528;2022-07-17T01:21:18;18.10;89.20
27858;DHT22;16852;51.446;6.528;2022-07-17T01:23:19;18.10;88.20
27858;DHT22;16852;51.446;6.528;2022-07-17T01:25:22;18.00;88.50
27858;DHT22;16852;51.446;6.528;2022-07-17T01:27:23;18.10;88.40
27858;DHT22;16852;51.446;6.528;2022-07-17T01:29:23;18.00;88.20
27858;DHT22;16852;51.446;6.528;2022-07-17T01:31:24;18.00;87.60
27858;DHT22;16852;51.446;6.528;2022-07-17T01:33:25;18.00;87.70
27858;DHT22;16852;51.446;6.528;2022-07-17T01:35:25;18.00;87.70
27858;DHT22;16852;51.446;6.528;2022-07-17T01:37:26;18.00;87.90
27858;DHT22;16852;51.446;6.528;2022-07-17T01:39:26;18.00;87.90
27858;DHT22;16852;51.446;6.528;2022-07-17T01:41:46;18.00;90.00
27858;DHT22;16852;51.446;6.528;2022-07-17T01:43:46;17.90;88.40
27858;DHT22;16852;51.446;6.528;2022-07-17T01:45:47;18.00;89.20
27858;DHT22;16852;51.446;6.528;2022-07-17T01:47:48;17.90;88.70
27858;DHT22;16852;51.446;6.528;2022-07-17T01:49:51;17.90;90.00
27858;DHT22;16852;51.446;6.528;2022-07-17T01:51:51;17.90;88.40
27858;DHT22;16852;51.446;6.528;2022-07-17T01:53:52;17.90;89.40
27858;DHT22;16852;51.446;6.528;2022-07-17T01:55:52;17.90;87.90
27858;DHT22;16852;51.446;6.528;2022-07-17T01:57:53;17.90;88.10
27858;DHT22;16852;51.446;6.528;2022-07-17T01:59:54;17.80;87.60
27858;DHT22;16852;51.446;6.528;2022-07-17T02:01:54;17.80;88.10
27858;DHT22;16852;51.446;6.528;2022-07-17T02:03:55;17.80;88.10
27858;DHT22;16852;51.446;6.528;2022-07-17T02:05:56;17.80;87.80
27858;DHT22;16852;51.446;6.528;2022-07-17T02:07:56;17.80;87.40
27858;DHT22;16852;51.446;6.528;2022-07-17T02:09:57;17.80;87.80
27858;DHT22;16852;51.446;6.528;2022-07-17T02:11:58;17.70;87.80
27858;DHT22;16852;51.446;6.528;2022-07-17T02:13:59;17.70;89.40
27858;DHT22;16852;51.446;6.528;2022-07-17T02:15:59;17.70;90.00
27858;DHT22;16852;51.446;6.528;2022-07-17T02:18:00;17.70;89.50
27858;DHT22;16852;51.446;6.528;2022-07-17T02:20:00;17.70;90.20
27858;DHT22;16852;51.446;6.528;2022-07-17T02:22:01;17.70;90.90
27858;DHT22;16852;51.446;6.528;2022-07-17T02:24:02;17.60;91.40
27858;DHT22;16852;51.446;6.528;2022-07-17T02:26:02;17.50;90.40
27858;DHT22;16852;51.446;6.528;2022-07-17T02:28:03;17.50;90.90
27858;DHT22;16852;51.446;6.528;2022-07-17T02:30:10;17.40;91.30
27858;DHT22;16852;51.446;6.528;2022-07-17T02:32:11;17.40;90.70
27858;DHT22;16852;51.446;6.528;2022-07-17T02:34:11;17.40;90.50
27858;DHT22;16852;51.446;6.528;2022-07-17T02:36:12;17.30;90.20
27858;DHT22;16852;51.446;6.528;2022-07-17T02:38:12;17.30;90.50
27858;DHT22;16852;51.446;6.528;2022-07-17T02:40:13;17.30;90.50
27858;DHT22;16852;51.446;6.528;2022-07-17T02:42:14;17.30;90.50
27858;DHT22;16852;51.446;6.528;2022-07-17T02:44:14;17.20;90.60
27858;DHT22;16852;51.446;6.528;2022-07-17T02:46:15;17.20;91.10
27858;DHT22;16852;51.446;6.528;2022-07-17T02:48:15;17.20;91.10
27858;DHT22;16852;51.446;6.528;2022-07-17T02:50:16;17.10;91.40
27858;DHT22;16852;51.446;6.528;2022-07-17T02:52:17;17.10;91.20
27858;DHT22;16852;51.446;6.528;2022-07-17T02:54:17;17.10;91.50
27858;DHT22;16852;51.446;6.528;2022-07-17T02:56:18;17.10;91.00
27858;DHT22;16852;51.446;6.528;2022-07-17T02:58:19;17.10;91.10
27858;DHT22;16852;51.446;6.528;2022-07-17T03:00:20;17.10;92.00
27858;DHT22;16852;51.446;6.528;2022-07-17T03:02:20;17.10;92.00
27858;DHT22;16852;51.446;6.528;2022-07-17T03:04:21;17.00;91.60
27858;DHT22;16852;51.446;6.528;2022-07-17T03:06:22;17.00;91.80
27858;DHT22;16852;51.446;6.528;2022-07-17T03:08:22;17.00;91.40
27858;DHT22;16852;51.446;6.528;2022-07-17T03:10:23;16.90;90.90
27858;DHT22;16852;51.446;6.528;2022-07-17T03:12:23;16.90;91.10
27858;DHT22;16852;51.446;6.528;2022-07-17T03:14:24;16.90;91.30
27858;DHT22;16852;51.446;6.528;2022-07-17T03:16:25;16.90;90.80
27858;DHT22;16852;51.446;6.528;2022-07-17T03:18:26;16.90;90.50
27858;DHT22;16852;51.446;6.528;2022-07-17T03:20:26;16.90;90.60
27858;DHT22;16852;51.446;6.528;2022-07-17T03:22:28;16.90;91.20
27858;DHT22;16852;51.446;6.528;2022-07-17T03:24:29;16.90;91.10
27858;DHT22;16852;51.446;6.528;2022-07-17T03:26:29;16.80;91.50
27858;DHT22;16852;51.446;6.528;2022-07-17T03:28:30;16.80;92.40
27858;DHT22;16852;51.446;6.528;2022-07-17T03:30:31;16.80;92.50
27858;DHT22;16852;51.446;6.528;2022-07-17T03:32:31;16.70;92.30
27858;DHT22;16852;51.446;6.528;2022-07-17T03:34:32;16.70;92.00
27858;DHT22;16852;51.446;6.528;2022-07-17T03:36:32;16.80;91.60
27858;DHT22;16852;51.446;6.528;2022-07-17T03:38:33;16.70;91.80
27858;DHT22;16852;51.446;6.528;2022-07-17T03:40:34;16.70;92.20
27858;DHT22;16852;51.446;6.528;2022-07-17T03:42:35;16.70;91.80
27858;DHT22;16852;51.446;6.528;2022-07-17T03:44:35;16.70;91.50
27858;DHT22;16852;51.446;6.528;2022-07-17T03:46:36;16.70;91.60
27858;DHT22;16852;51.446;6.528;2022-07-17T03:48:36;16.70;91.80
27858;DHT22;16852;51.446;6.528;2022-07-17T03:50:37;16.70;92.20
27858;DHT22;16852;51.446;6.528;2022-07-17T03:52:38;16.70;92.00
27858;DHT22;16852;51.446;6.528;2022-07-17T03:54:38;16.60;91.60
27858;DHT22;16852;51.446;6.528;2022-07-17T03:56:39;16.60;91.40
27858;DHT22;16852;51.446;6.528;2022-07-17T03:58:40;16.60;91.70
27858;DHT22;16852;51.446;6.528;2022-07-17T04:00:41;16.60;91.70
27858;DHT22;16852;51.446;6.528;2022-07-17T04:02:41;16.60;91.90
27858;DHT22;16852;51.446;6.528;2022-07-17T04:04:42;16.60;92.40
27858;DHT22;16852;51.446;6.528;2022-07-17T04:06:43;16.60;93.00
27858;DHT22;16852;51.446;6.528;2022-07-17T04:08:44;16.60;92.90
27858;DHT22;16852;51.446;6.528;2022-07-17T04:10:45;16.60;92.60
27858;DHT22;16852;51.446;6.528;2022-07-17T04:12:45;16.60;92.60
27858;DHT22;16852;51.446;6.528;2022-07-17T04:14:48;16.60;93.10
27858;DHT22;16852;51.446;6.528;2022-07-17T04:16:49;16.60;92.60
27858;DHT22;16852;51.446;6.528;2022-07-17T04:18:50;16.60;92.60
27858;DHT22;16852;51.446;6.528;2022-07-17T04:20:51;16.60;92.50
27858;DHT22;16852;51.446;6.528;2022-07-17T04:22:52;16.50;92.50
27858;DHT22;16852;51.446;6.528;2022-07-17T04:24:53;16.50;92.60
27858;DHT22;16852;51.446;6.528;2022-07-17T04:26:53;16.50;92.80
27858;DHT22;16852;51.446;6.528;2022-07-17T04:28:54;16.50;92.90
27858;DHT22;16852;51.446;6.528;2022-07-17T04:30:54;16.40;92.90
27858;DHT22;16852;51.446;6.528;2022-07-17T04:32:57;16.50;93.20
27858;DHT22;16852;51.446;6.528;2022-07-17T04:34:57;16.40;93.70
27858;DHT22;16852;51.446;6.528;2022-07-17T04:36:58;16.40;93.50
27858;DHT22;16852;51.446;6.528;2022-07-17T04:38:59;16.40;93.70
27858;DHT22;16852;51.446;6.528;2022-07-17T04:40:59;16.40;94.10
27858;DHT22;16852;51.446;6.528;2022-07-17T04:43:00;16.40;93.80
27858;DHT22;16852;51.446;6.528;2022-07-17T04:45:01;16.40;93.70
27858;DHT22;16852;51.446;6.528;2022-07-17T04:47:02;16.40;93.80
27858;DHT22;16852;51.446;6.528;2022-07-17T04:49:02;16.40;93.70
27858;DHT22;16852;51.446;6.528;2022-07-17T04:51:03;16.50;93.90
27858;DHT22;16852;51.446;6.528;2022-07-17T04:53:03;16.50;93.90
27858;DHT22;16852;51.446;6.528;2022-07-17T04:55:05;16.40;94.20
27858;DHT22;16852;51.446;6.528;2022-07-17T04:57:05;16.40;94.30
27858;DHT22;16852;51.446;6.528;2022-07-17T04:59:06;16.50;94.70
27858;DHT22;16852;51.446;6.528;2022-07-17T05:01:07;16.40;94.60
27858;DHT22;16852;51.446;6.528;2022-07-17T05:03:07;16.40;94.80
27858;DHT22;16852;51.446;6.528;2022-07-17T05:05:08;16.50;95.60
27858;DHT22;16852;51.446;6.528;2022-07-17T05:07:09;16.50;95.50
27858;DHT22;16852;51.446;6.528;2022-07-17T05:09:09;16.50;95.00
27858;DHT22;16852;51.446;6.528;2022-07-17T05:11:10;16.50;94.90
27858;DHT22;16852;51.446;6.528;2022-07-17T05:13:10;16.60;95.30
27858;DHT22;16852;51.446;6.528;2022-07-17T05:15:12;16.60;95.60
27858;DHT22;16852;51.446;6.528;2022-07-17T05:17:13;16.60;95.70
27858;DHT22;16852;51.446;6.528;2022-07-17T05:19:14;16.60;96.10
27858;DHT22;16852;51.446;6.528;2022-07-17T05:21:14;16.60;96.20
27858;DHT22;16852;51.446;6.528;2022-07-17T05:23:15;16.70;96.20
27858;DHT22;16852;51.446;6.528;2022-07-17T05:25:15;16.70;96.30
27858;DHT22;16852;51.446;6.528;2022-07-17T05:27:16;16.70;96.70
27858;DHT22;16852;51.446;6.528;2022-07-17T05:29:17;16.70;97.10
27858;DHT22;16852;51.446;6.528;2022-07-17T05:31:19;16.80;97.00
27858;DHT22;16852;51.446;6.528;2022-07-17T05:33:19;16.80;97.00
27858;DHT22;16852;51.446;6.528;2022-07-17T05:35:20;16.90;96.80
27858;DHT22;16852;51.446;6.528;2022-07-17T05:37:21;16.90;96.90
27858;DHT22;16852;51.446;6.528;2022-07-17T05:39:21;16.90;96.80
27858;DHT22;16852;51.446;6.528;2022-07-17T05:41:22;16.90;96.70
27858;DHT22;16852;51.446;6.528;2022-07-17T05:43:22;16.90;96.50
27858;DHT22;16852;51.446;6.528;2022-07-17T05:45:23;16.90;96.90
27858;DHT22;16852;51.446;6.528;2022-07-17T05:47:24;16.90;96.80
27858;DHT22;16852;51.446;6.528;2022-07-17T05:49:25;16.80;96.80
27858;DHT22;16852;51.446;6.528;2022-07-17T05:51:25;16.70;97.00
27858;DHT22;16852;51.446;6.528;2022-07-17T05:53:26;16.80;98.10
27858;DHT22;16852;51.446;6.528;2022-07-17T05:55:27;16.80;97.60
27858;DHT22;16852;51.446;6.528;2022-07-17T05:57:27;16.70;97.00
27858;DHT22;16852;51.446;6.528;2022-07-17T05:59:28;16.70;97.00
27858;DHT22;16852;51.446;6.528;2022-07-17T06:01:29;16.80;97.00
27858;DHT22;16852;51.446;6.528;2022-07-17T06:03:29;16.90;97.10
27858;DHT22;16852;51.446;6.528;2022-07-17T06:05:30;17.00;96.80
27858;DHT22;16852;51.446;6.528;2022-07-17T06:07:31;17.30;97.00
27858;DHT22;16852;51.446;6.528;2022-07-17T06:09:31;17.60;95.80
27858;DHT22;16852;51.446;6.528;2022-07-17T06:11:32;17.80;95.10
27858;DHT22;16852;51.446;6.528;2022-07-17T06:13:33;18.20;95.40
27858;DHT22;16852;51.446;6.528;2022-07-17T06:15:33;18.70;94.30
27858;DHT22;16852;51.446;6.528;2022-07-17T06:17:34;19.10;94.70
27858;DHT22;16852;51.446;6.528;2022-07-17T06:19:35;19.60;92.90
27858;DHT22;16852;51.446;6.528;2022-07-17T06:21:35;20.10;92.10
27858;DHT22;16852;51.446;6.528;2022-07-17T06:23:36;20.30;90.60
27858;DHT22;16852;51.446;6.528;2022-07-17T06:25:36;20.60;90.90
27858;DHT22;16852;51.446;6.528;2022-07-17T06:27:41;21.00;90.30
27858;DHT22;16852;51.446;6.528;2022-07-17T06:29:41;21.40;90.10
27858;DHT22;16852;51.446;6.528;2022-07-17T06:31:42;21.70;87.50
27858;DHT22;16852;51.446;6.528;2022-07-17T06:33:43;22.10;88.70
27858;DHT22;16852;51.446;6.528;2022-07-17T06:35:43;22.60;89.10
27858;DHT22;16852;51.446;6.528;2022-07-17T06:37:44;22.90;88.00
27858;DHT22;16852;51.446;6.528;2022-07-17T06:39:44;23.40;85.20
27858;DHT22;16852;51.446;6.528;2022-07-17T06:41:45;23.60;86.30
27858;DHT22;16852;51.446;6.528;2022-07-17T06:43:46;24.00;84.70
27858;DHT22;16852;51.446;6.528;2022-07-17T06:45:46;24.20;81.30
27858;DHT22;16852;51.446;6.528;2022-07-17T06:47:47;24.50;81.70
27858;DHT22;16852;51.446;6.528;2022-07-17T06:49:47;24.70;83.20
27858;DHT22;16852;51.446;6.528;2022-07-17T06:51:48;24.80;80.50
27858;DHT22;16852;51.446;6.528;2022-07-17T06:53:49;24.90;77.60
27858;DHT22;16852;51.446;6.528;2022-07-17T06:55:49;24.90;77.10
27858;DHT22;16852;51.446;6.528;2022-07-17T06:57:50;25.00;79.30
27858;DHT22;16852;51.446;6.528;2022-07-17T06:59:50;25.10;80.60
27858;DHT22;16852;51.446;6.528;2022-07-17T07:01:51;25.10;78.60
27858;DHT22;16852;51.446;6.528;2022-07-17T07:03:52;25.10;75.00
27858;DHT22;16852;51.446;6.528;2022-07-17T07:05:52;24.90;74.40
27858;DHT22;16852;51.446;6.528;2022-07-17T07:07:53;24.80;74.80
27858;DHT22;16852;51.446;6.528;2022-07-17T07:09:53;24.80;78.50
27858;DHT22;16852;51.446;6.528;2022-07-17T07:11:54;24.90;79.20
27858;DHT22;16852;51.446;6.528;2022-07-17T07:13:55;24.90;74.50
27858;DHT22;16852;51.446;6.528;2022-07-17T07:15:55;25.00;75.60
27858;DHT22;16852;51.446;6.528;2022-07-17T07:17:56;25.10;75.80
27858;DHT22;16852;51.446;6.528;2022-07-17T07:19:57;25.20;76.50
27858;DHT22;16852;51.446;6.528;2022-07-17T07:21:57;25.30;75.30
27858;DHT22;16852;51.446;6.528;2022-07-17T07:23:58;25.40;78.00
27858;DHT22;16852;51.446;6.528;2022-07-17T07:25:59;25.30;72.70
27858;DHT22;16852;51.446;6.528;2022-07-17T07:27:59;25.30;72.60
27858;DHT22;16852;51.446;6.528;2022-07-17T07:30:00;25.30;70.70
27858;DHT22;16852;51.446;6.528;2022-07-17T07:32:00;25.30;71.90
27858;DHT22;16852;51.446;6.528;2022-07-17T07:34:02;25.40;73.30
27858;DHT22;16852;51.446;6.528;2022-07-17T07:36:03;25.40;73.70
27858;DHT22;16852;51.446;6.528;2022-07-17T07:38:04;25.50;74.50
27858;DHT22;16852;51.446;6.528;2022-07-17T07:40:05;25.50;74.40
27858;DHT22;16852;51.446;6.528;2022-07-17T07:42:07;25.50;74.80
27858;DHT22;16852;51.446;6.528;2022-07-17T07:44:07;25.50;75.30
27858;DHT22;16852;51.446;6.528;2022-07-17T07:46:08;25.50;75.30
27858;DHT22;16852;51.446;6.528;2022-07-17T07:48:09;25.50;72.40
27858;DHT22;16852;51.446;6.528;2022-07-17T07:50:10;25.50;71.60
27858;DHT22;16852;51.446;6.528;2022-07-17T07:52:12;25.60;73.10
27858;DHT22;16852;51.446;6.528;2022-07-17T07:54:12;25.60;73.90
27858;DHT22;16852;51.446;6.528;2022-07-17T07:56:13;25.70;73.00
27858;DHT22;16852;51.446;6.528;2022-07-17T07:58:14;25.70;71.40
27858;DHT22;16852;51.446;6.528;2022-07-17T08:00:15;25.70;73.40
27858;DHT22;16852;51.446;6.528;2022-07-17T08:02:16;25.70;74.60
27858;DHT22;16852;51.446;6.528;2022-07-17T08:04:16;25.80;73.70
27858;DHT22;16852;51.446;6.528;2022-07-17T08:06:17;25.80;72.30
27858;DHT22;16852;51.446;6.528;2022-07-17T08:08:18;25.90;72.10
27858;DHT22;16852;51.446;6.528;2022-07-17T08:10:18;25.90;72.80
27858;DHT22;16852;51.446;6.528;2022-07-17T08:12:19;25.90;73.00
27858;DHT22;16852;51.446;6.528;2022-07-17T08:14:20;26.00;73.30
27858;DHT22;16852;51.446;6.528;2022-07-17T08:16:20;26.00;73.40
27858;DHT22;16852;51.446;6.528;2022-07-17T08:18:21;26.00;70.20
27858;DHT22;16852;51.446;6.528;2022-07-17T08:20:22;26.00;70.10
27858;DHT22;16852;51.446;6.528;2022-07-17T08:22:22;25.90;68.90
27858;DHT22;16852;51.446;6.528;2022-07-17T08:24:23;25.90;69.20
27858;DHT22;16852;51.446;6.528;2022-07-17T08:26:24;25.90;68.00
27858;DHT22;16852;51.446;6.528;2022-07-17T08:28:24;25.90;70.10
27858;DHT22;16852;51.446;6.528;2022-07-17T08:30:25;25.90;71.90
27858;DHT22;16852;51.446;6.528;2022-07-17T08:32:26;25.90;68.90
27858;DHT22;16852;51.446;6.528;2022-07-17T08:34:26;25.90;69.50
27858;DHT22;16852;51.446;6.528;2022-07-17T08:36:27;25.90;68.60
27858;DHT22;16852;51.446;6.528;2022-07-17T08:38:27;25.90;69.90
27858;DHT22;16852;51.446;6.528;2022-07-17T08:40:34;25.90;68.40
27858;DHT22;16852;51.446;6.528;2022-07-17T08:42:35;26.00;70.80
27858;DHT22;16852;51.446;6.528;2022-07-17T08:44:43;26.00;70.00
27858;DHT22;16852;51.446;6.528;2022-07-17T08:46:44;26.00;70.50
27858;DHT22;16852;51.446;6.528;2022-07-17T08:48:46;26.00;71.00
27858;DHT22;16852;51.446;6.528;2022-07-17T08:50:48;26.10;67.70
27858;DHT22;16852;51.446;6.528;2022-07-17T08:52:49;26.00;69.70
27858;DHT22;16852;51.446;6.528;2022-07-17T08:54:49;26.00;71.70
27858;DHT22;16852;51.446;6.528;2022-07-17T08:56:50;26.10;70.50
27858;DHT22;16852;51.446;6.528;2022-07-17T08:58:51;26.00;69.30
27858;DHT22;16852;51.446;6.528;2022-07-17T09:00:52;26.00;69.20
27858;DHT22;16852;51.446;6.528;2022-07-17T09:02:55;26.00;70.00
27858;DHT22;16852;51.446;6.528;2022-07-17T09:04:56;26.10;68.80
27858;DHT22;16852;51.446;6.528;2022-07-17T09:07:01;25.90;66.40
27858;DHT22;16852;51.446;6.528;2022-07-17T09:09:13;26.00;71.00
27858;DHT22;16852;51.446;6.528;2022-07-17T09:11:13;26.00;70.20
27858;DHT22;16852;51.446;6.528;2022-07-17T09:13:21;26.10;72.50
27858;DHT22;16852;51.446;6.528;2022-07-17T09:15:22;26.00;69.60
27858;DHT22;16852;51.446;6.528;2022-07-17T09:17:23;26.10;69.10
27858;DHT22;16852;51.446;6.528;2022-07-17T09:19:29;26.10;69.80
27858;DHT22;16852;51.446;6.528;2022-07-17T09:21:30;26.10;66.50
27858;DHT22;16852;51.446;6.528;2022-07-17T09:23:32;26.10;67.10
27858;DHT22;16852;51.446;6.528;2022-07-17T09:25:43;26.10;67.30
27858;DHT22;16852;51.446;6.528;2022-07-17T09:27:44;26.10;73.00
27858;DHT22;16852;51.446;6.528;2022-07-17T09:30:05;26.20;70.50
27858;DHT22;16852;51.446;6.528;2022-07-17T09:32:07;26.30;71.20
27858;DHT22;16852;51.446;6.528;2022-07-17T09:34:17;26.30;70.50
27858;DHT22;16852;51.446;6.528;2022-07-17T09:36:17;26.30;70.10
27858;DHT22;16852;51.446;6.528;2022-07-17T09:38:34;26.40;70.50
27858;DHT22;16852;51.446;6.528;2022-07-17T09:40:35;26.30;69.50
27858;DHT22;16852;51.446;6.528;2022-07-17T09:42:55;26.30;69.90
27858;DHT22;16852;51.446;6.528;2022-07-17T09:45:05;26.30;68.50
27858;DHT22;16852;51.446;6.528;2022-07-17T09:47:06;26.40;66.20
27858;DHT22;16852;51.446;6.528;2022-07-17T09:49:07;26.40;66.40
27858;DHT22;16852;51.446;6.528;2022-07-17T09:51:10;26.40;67.20
27858;DHT22;16852;51.446;6.528;2022-07-17T09:53:12;26.30;66.50
27858;DHT22;16852;51.446;6.528;2022-07-17T09:55:13;26.30;68.60
27858;DHT22;16852;51.446;6.528;2022-07-17T09:57:15;26.40;68.20
27858;DHT22;16852;51.446;6.528;2022-07-17T09:59:17;26.40;67.00
27858;DHT22;16852;51.446;6.528;2022-07-17T10:01:19;26.40;64.00
27858;DHT22;16852;51.446;6.528;2022-07-17T10:03:20;26.50;65.20
27858;DHT22;16852;51.446;6.528;2022-07-17T10:05:21;26.50;65.10
27858;DHT22;16852;51.446;6.528;2022-07-17T10:07:22;26.50;66.40
27858;DHT22;16852;51.446;6.528;2022-07-17T10:09:24;26.50;64.50
27858;DHT22;16852;51.446;6.528;2022-07-17T10:11:28;26.50;64.50
27858;DHT22;16852;51.446;6.528;2022-07-17T10:13:30;26.40;64.90
27858;DHT22;16852;51.446;6.528;2022-07-17T10:15:31;26.20;63.90
27858;DHT22;16852;51.446;6.528;2022-07-17T10:17:32;26.10;66.80
27858;DHT22;16852;51.446;6.528;2022-07-17T10:19:33;26.10;65.60
27858;DHT22;16852;51.446;6.528;2022-07-17T10:21:34;26.10;70.40
27858;DHT22;16852;51.446;6.528;2022-07-17T10:23:36;26.20;65.90
27858;DHT22;16852;51.446;6.528;2022-07-17T10:25:36;26.10;66.00
27858;DHT22;16852;51.446;6.528;2022-07-17T10:27:49;26.00;64.00
27858;DHT22;16852;51.446;6.528;2022-07-17T10:32:13;26.10;63.90
27858;DHT22;16852;51.446;6.528;2022-07-17T10:34:14;26.20;67.00
27858;DHT22;16852;51.446;6.528;2022-07-17T10:36:16;26.20;68.90
27858;DHT22;16852;51.446;6.528;2022-07-17T10:38:16;26.30;65.50
27858;DHT22;16852;51.446;6.528;2022-07-17T10:42:58;26.30;66.50
27858;DHT22;16852;51.446;6.528;2022-07-17T10:45:08;26.30;64.30
27858;DHT22;16852;51.446;6.528;2022-07-17T10:47:09;26.40;65.50
27858;DHT22;16852;51.446;6.528;2022-07-17T10:49:10;26.50;67.20
27858;DHT22;16852;51.446;6.528;2022-07-17T10:51:10;26.50;67.60
27858;DHT22;16852;51.446;6.528;2022-07-17T10:55:19;26.70;68.80
27858;DHT22;16852;51.446;6.528;2022-07-17T10:57:21;26.70;63.10
27858;DHT22;16852;51.446;6.528;2022-07-17T10:59:22;26.70;65.10
27858;DHT22;16852;51.446;6.528;2022-07-17T11:01:23;26.80;64.90
27858;DHT22;16852;51.446;6.528;2022-07-17T11:03:23;26.90;63.70
27858;DHT22;16852;51.446;6.528;2022-07-17T11:05:24;26.90;62.10
27858;DHT22;16852;51.446;6.528;2022-07-17T11:07:24;26.90;68.30
27858;DHT22;16852;51.446;6.528;2022-07-17T11:09:25;26.90;61.30
27858;DHT22;16852;51.446;6.528;2022-07-17T11:11:47;26.90;65.40
27858;DHT22;16852;51.446;6.528;2022-07-17T11:13:48;26.90;60.50
27858;DHT22;16852;51.446;6.528;2022-07-17T11:15:49;26.80;59.50
27858;DHT22;16852;51.446;6.528;2022-07-17T11:17:50;26.50;59.60
27858;DHT22;16852;51.446;6.528;2022-07-17T11:19:50;26.30;61.30
27858;DHT22;16852;51.446;6.528;2022-07-17T11:21:51;26.40;62.20
27858;DHT22;16852;51.446;6.528;2022-07-17T11:23:54;26.40;63.80
27858;DHT22;16852;51.446;6.528;2022-07-17T11:26:01;26.40;59.80
27858;DHT22;16852;51.446;6.528;2022-07-17T11:28:02;26.40;59.80
27858;DHT22;16852;51.446;6.528;2022-07-17T11:30:04;26.40;59.80
27858;DHT22;16852;51.446;6.528;2022-07-17T11:32:05;26.50;60.50
27858;DHT22;16852;51.446;6.528;2022-07-17T11:34:07;26.50;60.00
27858;DHT22;16852;51.446;6.528;2022-07-17T11:36:09;26.60;60.40
27858;DHT22;16852;51.446;6.528;2022-07-17T11:38:10;26.70;59.50
27858;DHT22;16852;51.446;6.528;2022-07-17T11:40:11;26.60;58.50
27858;DHT22;16852;51.446;6.528;2022-07-17T11:42:17;26.60;59.20
27858;DHT22;16852;51.446;6.528;2022-07-17T11:44:20;26.70;64.00
27858;DHT22;16852;51.446;6.528;2022-07-17T11:46:21;26.70;60.70
27858;DHT22;16852;51.446;6.528;2022-07-17T11:48:21;26.70;60.20
27858;DHT22;16852;51.446;6.528;2022-07-17T11:50:22;26.70;61.10
27858;DHT22;16852;51.446;6.528;2022-07-17T11:52:23;26.90;60.00
27858;DHT22;16852;51.446;6.528;2022-07-17T11:54:23;26.90;60.00
27858;DHT22;16852;51.446;6.528;2022-07-17T11:56:24;27.00;60.80
27858;DHT22;16852;51.446;6.528;2022-07-17T11:58:25;26.90;59.60
27858;DHT22;16852;51.446;6.528;2022-07-17T12:00:26;27.00;63.90
27858;DHT22;16852;51.446;6.528;2022-07-17T12:02:30;27.10;60.10
27858;DHT22;16852;51.446;6.528;2022-07-17T12:04:31;27.10;59.30
27858;DHT22;16852;51.446;6.528;2022-07-17T12:06:32;27.10;59.10
27858;DHT22;16852;51.446;6.528;2022-07-17T12:08:33;26.80;58.70
27858;DHT22;16852;51.446;6.528;2022-07-17T12:10:34;26.80;57.70
27858;DHT22;16852;51.446;6.528;2022-07-17T12:12:35;26.80;58.60
27858;DHT22;16852;51.446;6.528;2022-07-17T12:14:46;26.70;58.50
27858;DHT22;16852;51.446;6.528;2022-07-17T12:16:47;26.80;59.80
27858;DHT22;16852;51.446;6.528;2022-07-17T12:18:58;26.70;59.40
27858;DHT22;16852;51.446;6.528;2022-07-17T12:21:03;26.80;61.80
27858;DHT22;16852;51.446;6.528;2022-07-17T12:23:05;26.80;58.40
27858;DHT22;16852;51.446;6.528;2022-07-17T12:25:06;26.80;58.60
27858;DHT22;16852;51.446;6.528;2022-07-17T12:27:09;26.80;59.90
27858;DHT22;16852;51.446;6.528;2022-07-17T12:29:10;26.80;58.60
27858;DHT22;16852;51.446;6.528;2022-07-17T12:31:12;26.80;60.10
27858;DHT22;16852;51.446;6.528;2022-07-17T12:33:14;26.90;59.10
27858;DHT22;16852;51.446;6.528;2022-07-17T12:35:15;27.00;62.80
27858;DHT22;16852;51.446;6.528;2022-07-17T12:37:18;27.00;59.10
27858;DHT22;16852;51.446;6.528;2022-07-17T12:39:19;27.00;58.30
27858;DHT22;16852;51.446;6.528;2022-07-17T12:41:20;27.00;58.40
27858;DHT22;16852;51.446;6.528;2022-07-17T12:43:20;27.00;58.20
27858;DHT22;16852;51.446;6.528;2022-07-17T12:45:21;26.90;58.30
27858;DHT22;16852;51.446;6.528;2022-07-17T12:47:22;27.00;62.00
27858;DHT22;16852;51.446;6.528;2022-07-17T12:49:23;27.10;62.40
27858;DHT22;16852;51.446;6.528;2022-07-17T12:51:25;27.10;64.10
27858;DHT22;16852;51.446;6.528;2022-07-17T12:53:26;27.20;63.60